Airfield :
LOGIN :

Register | Disclaimer

   EN    FR    IT 

 










Legend :    VFR   Marginal VFR   IFR   Intensive IFR   Very Intensive IFR
Visi :
Ceiling :
>= 8 km
>= 3000ft
5 to 8 km
1000 to 3000 ft
1500m to 5 km
500 to 1000 ft
800 to 1500m
200 to 500 ft
< 800m
< 200 ft
Symbols :   Thunderstorms  Fog  Heavy snow  Heavy precipitations  Wind > 20 kt
SIGMETs :     Misc.  Thunderstorms  Icing  Turbulence  Mountain Waves  Volcanic Ashes







- Airport Elevation : 194 ft
- IATA code : LME
- Download approach charts


LFRM - Le Mans

CURRENT METAR :
  • 161730Z AUTO 28007KT 240V330 CAVOK 26/15 Q1014 NOSIG

EXPIRED METARs :
  • 161700Z AUTO 29007KT 240V330 CAVOK 27/16 Q1014 NOSIG
  • 161630Z AUTO 29007KT 170V340 CAVOK 27/16 Q1014 NOSIG
  • 161600Z AUTO 27009KT 230V310 CAVOK 28/15 Q1013 NOSIG
  • 161530Z AUTO 26006KT 220V310 CAVOK 29/14 Q1013 NOSIG
  • 161500Z AUTO 24006KT 190V290 CAVOK 30/15 Q1014 NOSIG

TAF TAF LFRM
Valid from the 16 at 18:00 until the 17 at 18:00 UTC


161700Z 1618/1718 31009KT CAVOK
TEMPO 1623/1703 4000 -RA BKN012
No reported NOTAMs for that airfield.



MET'MAP, your aeronautical weather chart ! - Copyright ORBIFLY December 2007 - Disclaimer

ORBIFLY MET'MAP TEAM :

Programming & Development : Alexandra Zaïnal
Concept & Development : Baudouin d'Aumeries
Co-Development & Prog : Marc-Olivier Méhu
Technical & hardware support : Manuel Goepfert

Contact : metmap@orbifly.com




SOURCES & CREDITS :

   NOAA